Olomouc, Czech Republic
Current Conditions -  °F | °C
As of 2:30 PM on Wednesday 22 Oct 2014 (Local Time) from LKMT Reporting Station
Light Rain Light Rain  
Wind Chill: 45°   Ceiling: 3000
Heat Index: 45°   Visibility: 6mi
Dew Point: 43°   Wind: 2mph
Humidity: 93%   Direction: NA
Pressure: 29.65"   Gusts: NA
Location:  49.61°N, 17.25°E
Report Text: LKMT 221230Z VRB02KT 9999 -RA OVC030 07/06 Q1004 NOSIG
Loading
Personal Weather Stations






























Interactive Weather Map
Tropical Storm Tracking
New forecast layout! Learn more

10-Day Weather Forecast

Advertisements
Track Severe Weather on mobile